Light Rain Current Weather (METAR) For Innsbruck - Kranebitten Airport

All times on the weather descriptions are local

Observed at 23:20 - (21 mins ago)

Light Rain

16°C

Light Rain
Clouds: Few Clouds at 3,000ft, Scattered Clouds at 3,600ft, Broken Clouds at 4,600ft
Wind: 300° at 08 knots
Visibility: 7,000m
QNH: 1012
Dew Point: 14°C
Runway in Use: Runway 26

Sunrise Today: 05:46
Sunset Today: 20:55

Forecast Weather (TAF) For Innsbruck - Kranebitten Airport

Issued at 02:00 - (2 days 2 hrs ago)


Runway in Use: Unable to determine, wind is clam

Forecast valid until 02:00 on Friday

METAR/TAF RAW METAR / TAF

LOWI 282120Z AUTO 30008KT 7000 -RA FEW030 SCT036 BKN046 16/14 Q1012

Weather Widget

Put weather from any of our airports on your website with our weather widget.

Find Another Search

Airport Search


Please Wait Please Wait - Loading
Close
Close

Login

Username:

Password:

Remember Me:

Remember me on this computer

Forgotten your password? Get a reset password sent to your registered e-mail address

Close

User Private Message

Subject:

Message: